Time;durP1;ratioP1;P1;durP2;ratioP2;P2;SDS_P1;SDS_P2;PMS_P1;PMS_P2;Temp;Humidity;BMP_temperature;BMP_pressure;BME280_temperature;BME280_humidity;BME280_pressure;Samples;Min_cycle;Max_cycle;Signal;HPM_P1;HPM_P2
2022/09/04 00:02:38;;;;;;;7.13;6.53;;;;;;;24.13;48.08;95456.81;6164851;28;103132;-68
2022/09/04 00:05:47;;;;;;;6.60;6.00;;;;;;;24.03;47.81;95457.13;6173228;28;103669;-68
2022/09/04 00:09:07;;;;;;;6.60;6.07;;;;;;;24.08;47.96;95459.63;6163587;28;102891;-68
2022/09/04 00:12:11;;;;;;;6.57;6.07;;;;;;;24.08;47.77;95462.31;6152928;28;103030;-68
2022/09/04 00:15:21;;;;;;;7.10;6.60;;;;;;;24.06;47.68;95461.84;6170820;28;103720;-68
2022/09/04 00:18:30;;;;;;;6.40;5.93;;;;;;;24.07;47.88;95469.56;6165358;28;102789;-69
2022/09/04 00:21:38;;;;;;;6.73;6.13;;;;;;;24.10;47.64;95468.13;6160660;28;103647;-68
2022/09/04 00:24:47;;;;;;;6.70;6.10;;;;;;;24.06;47.72;95467.97;6164329;28;106224;-68
2022/09/04 00:27:58;;;;;;;6.50;6.00;;;;;;;24.04;47.69;95470.16;6165741;28;104161;-68
2022/09/04 00:31:12;;;;;;;6.77;6.27;;;;;;;24.04;47.66;95461.34;6164964;28;104301;-69
2022/09/04 00:34:31;;;;;;;6.23;5.73;;;;;;;24.02;47.67;95475.00;6174187;28;102934;-68
2022/09/04 00:37:39;;;;;;;7.00;6.40;;;;;;;24.00;47.49;95479.09;6147947;28;103461;-68
2022/09/04 00:40:44;;;;;;;6.00;5.53;;;;;;;23.96;47.50;95478.09;6168382;28;103785;-69
2022/09/04 00:44:07;;;;;;;6.40;5.90;;;;;;;24.01;47.46;95469.97;6174749;28;104738;-68
2022/09/04 00:47:29;;;;;;;6.20;5.80;;;;;;;24.04;47.61;95472.06;6176417;28;103357;-68
2022/09/04 00:50:53;;;;;;;6.33;5.83;;;;;;;23.99;47.14;95477.47;6152017;28;103324;-69
2022/09/04 00:54:24;;;;;;;5.93;5.53;;;;;;;23.97;47.51;95469.78;6163224;28;102937;-68
2022/09/04 00:57:51;;;;;;;5.70;5.27;;;;;;;23.86;47.38;95463.13;6152625;28;103183;-69
2022/09/04 01:00:58;;;;;;;6.43;5.93;;;;;;;23.93;47.08;95468.03;6175082;28;103359;-68
2022/09/04 01:04:21;;;;;;;5.17;4.87;;;;;;;23.88;47.35;95469.75;6177425;28;104339;-69
2022/09/04 01:07:41;;;;;;;6.23;5.70;;;;;;;23.75;47.09;95473.28;6173184;28;104324;-68
2022/09/04 01:10:59;;;;;;;5.70;5.20;;;;;;;23.68;47.46;95467.56;6162099;28;103437;-68
2022/09/04 01:14:12;;;;;;;6.80;6.20;;;;;;;23.69;47.19;95473.69;6185305;28;103288;-68
2022/09/04 01:17:26;;;;;;;7.10;6.50;;;;;;;23.62;47.54;95476.00;6166874;28;103105;-70
2022/09/04 01:20:47;;;;;;;7.00;6.30;;;;;;;23.63;47.38;95465.03;6171207;28;104706;-68
2022/09/04 01:24:17;;;;;;;6.20;5.70;;;;;;;23.70;46.87;95469.94;6168721;28;102995;-69
2022/09/04 01:27:26;;;;;;;6.87;6.33;;;;;;;23.71;47.23;95471.53;6169811;28;103540;-68
2022/09/04 01:30:34;;;;;;;6.90;6.30;;;;;;;23.76;47.02;95466.84;6175784;28;102915;-68
2022/09/04 01:33:46;;;;;;;7.47;5.70;;;;;;;23.75;47.15;95467.94;6177586;28;103295;-69
2022/09/04 01:36:56;;;;;;;6.30;5.83;;;;;;;23.73;47.02;95454.09;6179009;28;103053;-68
2022/09/04 01:40:09;;;;;;;7.53;6.90;;;;;;;23.73;47.13;95447.97;6160162;28;105241;-68
2022/09/04 01:43:17;;;;;;;8.73;8.03;;;;;;;23.71;46.92;95445.59;6161435;28;103329;-68
2022/09/04 01:46:52;;;;;;;9.43;8.57;;;;;;;23.71;46.92;95452.81;6175803;28;103034;-68
2022/09/04 01:50:02;;;;;;;9.10;8.40;;;;;;;23.71;47.03;95445.59;6148979;28;103223;-67
2022/09/04 01:53:12;;;;;;;8.40;7.70;;;;;;;23.75;47.00;95445.75;6151388;28;103026;-67
2022/09/04 01:56:20;;;;;;;7.83;7.00;;;;;;;23.74;46.81;95446.88;6170778;28;103845;-66
2022/09/04 01:59:28;;;;;;;7.40;6.90;;;;;;;23.79;46.69;95439.50;6185183;28;103967;-66
2022/09/04 02:02:41;;;;;;;7.17;6.50;;;;;;;23.77;46.68;95444.34;6177511;28;104312;-67
2022/09/04 02:06:00;;;;;;;7.47;6.97;;;;;;;23.76;46.79;95448.13;6156702;28;103088;-67
2022/09/04 02:09:14;;;;;;;8.17;5.73;;;;;;;23.79;46.78;95442.16;6182889;28;103327;-67
2022/09/04 02:12:29;;;;;;;7.13;6.60;;;;;;;23.73;46.69;95447.97;6173719;28;103168;-67
2022/09/04 02:15:41;;;;;;;7.13;5.83;;;;;;;23.79;46.44;95438.72;6168651;28;103418;-67
2022/09/04 02:18:54;;;;;;;7.13;6.60;;;;;;;23.77;46.43;95436.34;6167403;28;103095;-67
2022/09/04 02:22:04;;;;;;;6.40;5.80;;;;;;;23.79;46.36;95444.06;6167681;28;104203;-67
2022/09/04 02:25:17;;;;;;;5.93;5.43;;;;;;;23.80;46.75;95438.41;6185137;28;103426;-67
2022/09/04 02:28:33;;;;;;;6.47;5.97;;;;;;;23.80;46.71;95434.94;6157742;28;103350;-67
2022/09/04 02:31:47;;;;;;;6.03;5.63;;;;;;;23.81;46.65;95436.50;6177803;28;103237;-67
2022/09/04 02:34:59;;;;;;;6.27;5.73;;;;;;;23.80;46.35;95426.91;6181243;28;103065;-73
2022/09/04 02:38:14;;;;;;;5.37;4.97;;;;;;;23.80;46.65;95422.38;6152489;28;103262;-67
2022/09/04 02:41:26;;;;;;;5.60;5.20;;;;;;;23.79;46.82;95425.34;6165117;28;103389;-68
2022/09/04 02:44:42;;;;;;;6.50;5.90;;;;;;;23.81;46.48;95423.94;6161752;28;103409;-67
2022/09/04 02:47:51;;;;;;;6.03;5.60;;;;;;;23.79;46.33;95433.34;6164445;28;103279;-67
2022/09/04 02:51:12;;;;;;;5.37;4.97;;;;;;;23.74;46.38;95431.63;6165526;28;103259;-67
2022/09/04 02:54:30;;;;;;;5.80;5.30;;;;;;;23.74;46.34;95449.53;6183459;28;102787;-66
2022/09/04 02:57:49;;;;;;;6.90;6.20;;;;;;;23.57;46.54;95450.22;6175900;28;103342;-67
2022/09/04 03:01:02;;;;;;;7.90;7.07;;;;;;;23.50;46.30;95455.97;6149065;28;103450;-67
2022/09/04 03:04:14;;;;;;;8.00;7.33;;;;;;;23.54;46.49;95446.28;6180411;28;103051;-67
2022/09/04 03:07:25;;;;;;;7.47;6.73;;;;;;;23.53;46.68;95454.59;6177983;28;105915;-67
2022/09/04 03:10:33;;;;;;;8.03;7.33;;;;;;;23.63;46.80;95461.56;6159807;28;103325;-67
2022/09/04 03:13:46;;;;;;;7.90;7.20;;;;;;;23.59;46.39;95469.41;6158539;28;103141;-67
2022/09/04 03:16:55;;;;;;;8.27;7.47;;;;;;;23.49;46.48;95465.09;6180584;28;103357;-67
2022/09/04 03:20:05;;;;;;;8.53;7.93;;;;;;;23.45;46.69;95464.13;6172470;28;102832;-67
2022/09/04 03:23:15;;;;;;;8.23;7.50;;;;;;;23.44;46.63;95464.44;6155918;28;106406;-67
2022/09/04 03:26:23;;;;;;;8.37;7.57;;;;;;;23.44;46.68;95459.88;6158456;28;102961;-67
2022/09/04 03:29:34;;;;;;;8.20;7.60;;;;;;;23.46;46.74;95459.56;6176294;28;103393;-67
2022/09/04 03:32:46;;;;;;;7.53;6.93;;;;;;;23.39;46.84;95453.88;6174623;28;103216;-67
2022/09/04 03:36:00;;;;;;;7.70;7.00;;;;;;;23.23;46.59;95456.88;6156253;28;103292;-67
2022/09/04 03:39:13;;;;;;;7.63;7.03;;;;;;;23.25;46.58;95453.91;6167255;28;103146;-67
2022/09/04 03:42:33;;;;;;;8.00;7.30;;;;;;;23.19;47.09;95469.25;6163509;28;103087;-67
2022/09/04 03:45:49;;;;;;;9.13;8.37;;;;;;;23.21;46.64;95466.28;6174354;28;103560;-67
2022/09/04 03:49:06;;;;;;;13.13;12.13;;;;;;;23.21;46.36;95464.41;6156814;28;103873;-67
2022/09/04 03:52:20;;;;;;;27.87;25.47;;;;;;;23.27;46.32;95478.41;6178300;28;104004;-76
2022/09/04 03:55:56;;;;;;;24.07;21.97;;;;;;;23.36;46.28;95492.66;6164027;28;103325;-67
2022/09/04 03:59:04;;;;;;;20.63;18.73;;;;;;;23.38;46.89;95497.69;6135975;28;103081;-67
2022/09/04 04:02:15;;;;;;;17.43;15.87;;;;;;;23.34;46.85;95494.03;6155894;28;103127;-67
2022/09/04 04:05:26;;;;;;;16.00;14.50;;;;;;;23.39;46.78;95501.94;6139579;28;103165;-67
2022/09/04 04:08:46;;;;;;;13.07;11.90;;;;;;;23.30;46.51;95499.97;6172565;28;104998;-67
2022/09/04 04:12:17;;;;;;;11.23;10.30;;;;;;;23.17;47.39;95503.44;6176934;28;102922;-67
2022/09/04 04:15:30;;;;;;;11.57;10.57;;;;;;;23.05;47.48;95519.22;6157638;28;102797;-67
2022/09/04 04:18:58;;;;;;;11.50;10.50;;;;;;;23.17;47.20;95532.81;6176212;28;103358;-67
2022/09/04 04:22:27;;;;;;;9.63;8.90;;;;;;;23.04;47.65;95535.53;6167504;28;103495;-67
2022/09/04 04:25:49;;;;;;;8.93;8.23;;;;;;;22.72;48.70;95537.25;6175969;28;106291;-68
2022/09/04 04:29:15;;;;;;;8.37;7.70;;;;;;;22.77;48.18;95539.81;6179528;28;103012;-68
2022/09/04 04:32:40;;;;;;;9.80;9.00;;;;;;;22.69;48.10;95543.97;6153038;28;103208;-67
2022/09/04 04:35:53;;;;;;;9.13;8.33;;;;;;;22.72;48.00;95550.59;6164954;28;105461;-69
2022/09/04 04:39:18;;;;;;;9.00;8.10;;;;;;;22.88;48.04;95553.75;6168059;28;103040;-69
2022/09/04 04:42:30;;;;;;;8.63;7.83;;;;;;;22.97;47.61;95559.94;6176822;28;103058;-69
2022/09/04 04:45:50;;;;;;;8.77;8.07;;;;;;;22.91;48.15;95567.28;6177524;28;104453;-69
2022/09/04 04:49:24;;;;;;;8.20;7.50;;;;;;;22.82;48.48;95558.38;6176981;28;103139;-69
2022/09/04 04:52:40;;;;;;;12.97;11.77;;;;;;;22.72;47.99;95553.25;6157386;28;105794;-69
2022/09/04 04:55:52;;;;;;;21.70;19.90;;;;;;;22.19;49.90;95544.88;6159107;28;103153;-71
2022/09/04 04:59:22;;;;;;;11.50;10.60;;;;;;;22.10;49.84;95553.53;6185409;28;103141;-69
2022/09/04 05:02:31;;;;;;;9.47;8.43;;;;;;;22.35;48.83;95560.31;6177485;28;102988;-69
2022/09/04 05:05:54;;;;;;;9.00;8.20;;;;;;;22.54;48.60;95568.25;6168016;28;104473;-69
2022/09/04 05:09:05;;;;;;;8.00;6.53;;;;;;;22.60;48.57;95569.75;6182617;28;102727;-69
2022/09/04 05:12:16;;;;;;;7.57;6.97;;;;;;;22.77;48.14;95557.69;6179543;28;103092;-71
2022/09/04 05:15:32;;;;;;;10.60;7.43;;;;;;;22.61;48.47;95549.97;6182119;28;102800;-69
2022/09/04 05:18:52;;;;;;;10.43;9.47;;;;;;;22.02;49.27;95532.13;6163497;28;103516;-69
2022/09/04 05:22:05;;;;;;;8.70;7.90;;;;;;;22.47;48.58;95546.47;6175696;28;103509;-69
2022/09/04 05:25:13;;;;;;;7.53;6.83;;;;;;;22.87;47.91;95555.63;6184140;28;103387;-68
2022/09/04 05:28:25;;;;;;;7.70;7.00;;;;;;;23.20;48.69;95560.81;6171705;28;103928;-69
2022/09/04 05:31:40;;;;;;;7.97;7.17;;;;;;;23.24;47.85;95565.25;6168579;28;103223;-70
2022/09/04 05:35:02;;;;;;;8.30;7.40;;;;;;;23.24;47.55;95559.91;6166879;28;103080;-70
2022/09/04 05:38:10;;;;;;;10.13;9.13;;;;;;;23.28;47.64;95555.53;6149509;28;104218;-69
2022/09/04 05:41:24;;;;;;;9.73;8.03;;;;;;;23.30;47.61;95549.94;6166802;28;105191;-69
2022/09/04 05:44:37;;;;;;;8.70;8.00;;;;;;;23.37;47.89;95549.53;6181939;28;103164;-69
2022/09/04 05:47:54;;;;;;;9.20;8.03;;;;;;;23.46;48.05;95569.09;6172092;28;103282;-69
2022/09/04 05:51:14;;;;;;;9.50;8.60;;;;;;;23.38;48.02;95562.59;6168377;28;103263;-69
2022/09/04 05:54:53;;;;;;;16.43;11.40;;;;;;;23.33;48.43;95561.88;6163721;28;103024;-69
2022/09/04 05:58:10;;;;;;;8.87;8.07;;;;;;;23.63;48.25;95561.22;6159631;28;102830;-69
2022/09/04 06:01:28;;;;;;;11.63;8.47;;;;;;;23.79;49.76;95562.44;6159715;28;103228;-70
2022/09/04 06:04:54;;;;;;;11.87;9.57;;;;;;;23.95;52.34;95562.84;6154595;28;104074;-69
2022/09/04 06:08:07;;;;;;;12.93;10.50;;;;;;;23.92;50.46;95543.97;6183065;28;103052;-70
2022/09/04 06:11:34;;;;;;;14.27;12.90;;;;;;;23.86;51.82;95544.09;6182143;28;102935;-69
2022/09/04 06:15:03;;;;;;;11.70;10.57;;;;;;;23.70;49.03;95542.09;6159530;28;103251;-69
2022/09/04 06:18:23;;;;;;;10.67;9.57;;;;;;;23.71;49.00;95543.69;6172163;28;105235;-68
2022/09/04 06:22:05;;;;;;;10.60;9.60;;;;;;;23.72;49.19;95548.72;6183186;28;103188;-72
2022/09/04 06:25:46;;;;;;;11.40;8.87;;;;;;;23.66;48.94;95543.78;6152834;28;106235;-68
2022/09/04 06:29:05;;;;;;;10.53;9.70;;;;;;;23.36;49.07;95547.97;6112436;28;103065;-69
2022/09/04 06:32:50;;;;;;;16.37;14.87;;;;;;;23.33;49.62;95546.66;6156626;28;102794;-73
2022/09/04 06:36:13;;;;;;;12.97;11.80;;;;;;;23.35;49.79;95549.03;6155703;28;103089;-69
2022/09/04 06:39:41;;;;;;;17.00;13.10;;;;;;;23.56;50.18;95545.59;6150889;28;103295;-68
2022/09/04 06:42:59;;;;;;;14.17;12.40;;;;;;;23.65;50.46;95545.66;6160043;28;103462;-68
2022/09/04 06:46:15;;;;;;;14.50;13.00;;;;;;;23.64;51.04;95549.44;6176260;28;103019;-68
2022/09/04 06:49:33;;;;;;;14.80;12.60;;;;;;;23.40;50.62;95546.25;6150949;28;105941;-69
2022/09/04 06:52:46;;;;;;;16.37;14.87;;;;;;;23.19;50.70;95552.03;6168444;28;104152;-68
2022/09/04 06:56:03;;;;;;;18.57;16.67;;;;;;;23.20;51.01;95564.28;6182191;28;102794;-68
2022/09/04 06:59:30;;;;;;;17.50;15.90;;;;;;;22.96;51.40;95564.50;6130497;28;103207;-69
2022/09/04 07:02:58;;;;;;;14.53;13.23;;;;;;;23.00;50.69;95559.34;6170257;28;103158;-69
2022/09/04 07:06:10;;;;;;;12.87;11.87;;;;;;;22.74;51.10;95555.63;6171775;28;103098;-68
2022/09/04 07:09:19;;;;;;;13.30;12.20;;;;;;;22.58;51.75;95545.25;6186674;28;103066;-68
2022/09/04 07:12:49;;;;;;;14.23;13.13;;;;;;;22.64;52.14;95546.72;6156457;28;103095;-68
2022/09/04 07:16:12;;;;;;;16.43;14.93;;;;;;;22.61;52.58;95547.31;6177920;28;102805;-68
2022/09/04 07:19:42;;;;;;;13.77;12.67;;;;;;;22.42;52.48;95549.25;6152589;28;106147;-68
2022/09/04 07:23:02;;;;;;;14.67;13.37;;;;;;;22.54;53.54;95554.91;6175380;28;103175;-69
2022/09/04 07:26:17;;;;;;;13.53;12.33;;;;;;;22.98;52.69;95551.63;6166011;28;103530;-69
2022/09/04 07:29:33;;;;;;;12.03;10.93;;;;;;;23.41;51.41;95540.63;6169545;28;103295;-70
2022/09/04 07:32:42;;;;;;;11.20;10.20;;;;;;;23.65;50.31;95539.53;6177180;28;103226;-70
2022/09/04 07:35:54;;;;;;;10.90;10.00;;;;;;;23.81;49.41;95541.53;6153367;28;103687;-70
2022/09/04 07:39:04;;;;;;;12.23;11.03;;;;;;;23.93;49.43;95538.31;6180680;28;103631;-70
2022/09/04 07:42:14;;;;;;;11.60;10.40;;;;;;;24.00;49.74;95545.94;6184249;28;102837;-70
2022/09/04 07:45:31;;;;;;;11.90;10.80;;;;;;;23.98;49.06;95553.44;6170729;28;104112;-69
2022/09/04 07:48:39;;;;;;;11.63;10.40;;;;;;;23.99;49.04;95561.16;6152518;28;103694;-69
2022/09/04 07:51:46;;;;;;;10.53;9.73;;;;;;;24.07;49.57;95570.38;6155772;28;103154;-69
2022/09/04 07:55:07;;;;;;;11.27;10.17;;;;;;;24.19;49.19;95567.91;6168794;28;103008;-78
2022/09/04 07:58:32;;;;;;;12.37;11.20;;;;;;;24.26;50.03;95565.59;6141780;28;103848;-68
2022/09/04 08:01:56;;;;;;;11.77;10.47;;;;;;;24.26;48.89;95562.91;6160511;28;103000;-69
2022/09/04 08:05:24;;;;;;;11.00;10.03;;;;;;;24.25;50.31;95561.34;6164399;28;104121;-69
2022/09/04 08:08:57;;;;;;;12.13;11.03;;;;;;;24.30;50.08;95568.44;6153626;28;103265;-68
2022/09/04 08:12:21;;;;;;;10.63;9.73;;;;;;;24.33;49.53;95568.59;6163912;28;103250;-69
2022/09/04 08:15:38;;;;;;;10.87;9.87;;;;;;;24.38;49.08;95575.72;6173390;28;104052;-69
2022/09/04 08:19:09;;;;;;;10.80;10.00;;;;;;;24.34;48.74;95577.41;6174471;28;103073;-68
2022/09/04 08:22:25;;;;;;;11.67;10.67;;;;;;;24.40;49.42;95574.31;6167888;28;102879;-70
2022/09/04 08:25:43;;;;;;;14.43;11.70;;;;;;;24.48;50.92;95572.78;6170538;28;103373;-69
2022/09/04 08:29:10;;;;;;;12.77;11.20;;;;;;;24.58;50.33;95577.09;6144049;28;103310;-68
2022/09/04 08:32:30;;;;;;;11.63;10.43;;;;;;;24.58;50.14;95577.88;6175400;28;104105;-68
2022/09/04 08:35:52;;;;;;;12.63;10.37;;;;;;;24.61;49.69;95581.81;6186654;28;105472;-67
2022/09/04 08:39:06;;;;;;;9.80;8.90;;;;;;;24.62;49.06;95564.66;6187058;28;105908;-67
2022/09/04 08:42:34;;;;;;;10.30;9.37;;;;;;;24.65;48.69;95569.38;6180585;28;103164;-67
2022/09/04 08:46:02;;;;;;;10.70;9.40;;;;;;;24.66;48.96;95562.94;6185103;28;103181;-68
2022/09/04 08:49:37;;;;;;;11.13;10.00;;;;;;;24.67;48.86;95564.50;6183431;28;103136;-68
2022/09/04 08:53:09;;;;;;;10.70;9.70;;;;;;;24.69;48.82;95559.66;6182128;28;103161;-68
2022/09/04 08:56:26;;;;;;;9.87;8.97;;;;;;;24.71;48.56;95562.84;6178294;28;103035;-69
2022/09/04 08:59:51;;;;;;;9.90;9.00;;;;;;;24.70;48.55;95554.03;6184550;28;103068;-68
2022/09/04 09:03:38;;;;;;;10.00;9.17;;;;;;;24.73;48.82;95548.06;6186668;28;103243;-68
2022/09/04 09:07:07;;;;;;;10.30;9.33;;;;;;;24.74;48.81;95546.16;6175515;28;102758;-68
2022/09/04 09:10:37;;;;;;;9.83;9.07;;;;;;;24.77;48.22;95545.53;6186639;28;103310;-68
2022/09/04 09:14:06;;;;;;;9.70;8.90;;;;;;;24.77;48.39;95542.84;6186855;28;105849;-68
2022/09/04 09:17:15;;;;;;;10.13;9.13;;;;;;;24.78;48.32;95552.47;6175597;28;103921;-68
2022/09/04 09:20:36;;;;;;;9.43;8.63;;;;;;;24.78;48.48;95545.22;6185649;28;103664;-68
2022/09/04 09:24:09;;;;;;;9.17;8.47;;;;;;;24.79;48.21;95538.78;6184114;28;103179;-68
2022/09/04 09:27:48;;;;;;;8.50;7.80;;;;;;;24.81;48.06;95537.66;6180561;28;103148;-68
2022/09/04 09:31:28;;;;;;;8.60;7.87;;;;;;;24.83;48.03;95532.78;6186004;28;103282;-69
2022/09/04 09:35:02;;;;;;;8.73;8.03;;;;;;;24.84;47.90;95529.78;6181185;28;103062;-68
2022/09/04 09:38:37;;;;;;;8.30;7.50;;;;;;;24.85;47.98;95528.69;6177617;28;105340;-68
2022/09/04 09:42:36;;;;;;;8.60;7.90;;;;;;;24.85;47.69;95525.22;6155763;28;103399;-68
2022/09/04 09:46:18;;;;;;;8.93;8.20;;;;;;;24.87;47.92;95520.38;6161371;28;103210;-68
2022/09/04 09:49:58;;;;;;;7.97;7.37;;;;;;;24.87;47.22;95523.06;6161606;28;103995;-68
2022/09/04 09:53:39;;;;;;;8.53;7.87;;;;;;;24.89;47.47;95518.19;6156084;28;103024;-68
2022/09/04 09:57:33;;;;;;;8.40;7.70;;;;;;;24.89;47.60;95515.50;6160488;28;103244;-68
2022/09/04 10:00:47;;;;;;;8.03;7.33;;;;;;;24.88;47.45;95504.00;6160759;28;103146;-70
2022/09/04 10:04:38;;;;;;;8.70;8.00;;;;;;;24.87;47.25;95491.72;6150911;28;103909;-68
2022/09/04 10:08:04;;;;;;;8.10;7.47;;;;;;;24.89;47.18;95494.09;6161364;28;103050;-68
2022/09/04 10:11:39;;;;;;;9.10;8.40;;;;;;;24.89;47.39;95505.56;6161146;28;103313;-68
2022/09/04 10:15:08;;;;;;;9.70;8.90;;;;;;;24.87;47.23;95505.09;6116571;28;103784;-68
2022/09/04 10:18:32;;;;;;;10.03;9.23;;;;;;;24.87;47.36;95498.97;6160650;28;103404;-68
2022/09/04 10:22:09;;;;;;;9.50;8.70;;;;;;;24.85;47.27;95493.09;6161567;28;104390;-69
2022/09/04 10:25:48;;;;;;;9.37;8.57;;;;;;;24.84;47.10;95476.25;6150856;28;103263;-69
2022/09/04 10:29:28;;;;;;;9.00;8.30;;;;;;;24.85;47.24;95472.47;6161237;28;102735;-68
2022/09/04 10:32:57;;;;;;;9.07;8.40;;;;;;;24.85;47.05;95477.84;6160732;28;103291;-68
2022/09/04 10:36:13;;;;;;;9.03;8.33;;;;;;;24.86;46.96;95473.25;6152148;28;103111;-67
2022/09/04 10:43:00;;;;;;;9.57;8.77;;;;;;;24.83;46.96;95469.31;6164638;28;103422;-67
2022/09/04 10:46:10;;;;;;;10.27;9.43;;;;;;;24.85;47.04;95477.03;6165296;28;103768;-68
2022/09/04 10:49:58;;;;;;;11.20;10.30;;;;;;;24.81;47.33;95476.88;6155861;28;103189;-71
2022/09/04 10:53:19;;;;;;;10.67;9.77;;;;;;;24.81;47.54;95468.06;6158512;28;102868;-68
2022/09/04 10:56:28;;;;;;;11.13;10.20;;;;;;;24.81;47.34;95462.72;6164269;28;102756;-68
2022/09/04 10:59:59;;;;;;;10.37;9.57;;;;;;;24.78;47.18;95464.13;6154394;28;103068;-68
2022/09/04 11:03:43;;;;;;;9.57;8.87;;;;;;;24.80;47.32;95461.94;6164315;28;103202;-67
2022/09/04 11:07:17;;;;;;;9.40;8.70;;;;;;;24.80;47.02;95451.22;6164185;28;103376;-67
2022/09/04 11:10:30;;;;;;;9.60;8.83;;;;;;;24.76;47.17;95431.53;6153852;28;103312;-67
2022/09/04 11:14:05;;;;;;;8.83;8.13;;;;;;;24.77;46.94;95438.47;6164216;28;103236;-68
2022/09/04 11:17:47;;;;;;;9.43;8.63;;;;;;;24.76;47.17;95440.34;6164128;28;103307;-68
2022/09/04 11:21:26;;;;;;;8.30;7.63;;;;;;;24.78;46.94;95434.69;6155207;28;105702;-68
2022/09/04 11:25:17;;;;;;;8.60;7.90;;;;;;;24.77;46.73;95427.75;6164614;28;103553;-68
2022/09/04 11:29:02;;;;;;;8.97;8.17;;;;;;;24.77;47.13;95435.78;6163933;28;103048;-68
2022/09/04 11:32:19;;;;;;;9.40;8.70;;;;;;;24.78;46.75;95423.97;6136157;28;103666;-68
2022/09/04 11:35:52;;;;;;;8.17;7.47;;;;;;;24.78;47.01;95430.13;6179985;28;105909;-68
2022/09/04 11:39:28;;;;;;;8.80;8.07;;;;;;;24.85;47.07;95440.34;6160962;28;103391;-67
2022/09/04 11:42:45;;;;;;;8.00;7.30;;;;;;;24.84;47.36;95419.25;6138420;28;103044;-67
2022/09/04 11:46:13;;;;;;;8.60;7.87;;;;;;;24.85;47.27;95410.91;6163324;28;103492;-68
2022/09/04 11:49:42;;;;;;;7.10;6.50;;;;;;;24.82;46.97;95408.84;6181522;28;104565;-68
2022/09/04 11:53:01;;;;;;;7.10;6.50;;;;;;;24.84;46.37;95422.72;6164208;28;103118;-67
2022/09/04 11:56:37;;;;;;;6.70;6.20;;;;;;;24.85;45.94;95412.78;6165115;28;103220;-68
2022/09/04 12:00:05;;;;;;;6.17;5.67;;;;;;;24.82;45.67;95411.53;6134909;28;104216;-68
2022/09/04 12:04:02;;;;;;;6.70;5.97;;;;;;;24.77;45.61;95403.66;6162870;28;103667;-68
2022/09/04 12:07:24;;;;;;;6.00;5.50;;;;;;;24.77;45.02;95395.63;6067542;28;106380;-65
2022/09/04 12:10:48;;;;;;;6.30;5.40;;;;;;;24.64;44.56;95391.97;6090367;28;102937;-63
2022/09/04 12:14:08;;;;;;;6.20;5.80;;;;;;;24.84;45.13;95395.16;6183201;28;103992;-66
2022/09/04 12:17:47;;;;;;;5.97;5.47;;;;;;;24.85;45.79;95391.38;6161442;28;103153;-64
2022/09/04 12:21:11;;;;;;;5.70;5.30;;;;;;;24.80;45.75;95386.97;6155712;28;103171;-65
2022/09/04 12:24:45;;;;;;;5.73;5.30;;;;;;;24.78;46.15;95383.81;6149611;28;103736;-64
2022/09/04 12:28:23;;;;;;;5.63;5.20;;;;;;;24.87;46.54;95390.00;6181159;28;103168;-65
2022/09/04 12:31:45;;;;;;;5.60;5.10;;;;;;;24.68;45.84;95378.78;6152325;28;103278;-63
2022/09/04 12:35:32;;;;;;;6.37;5.87;;;;;;;24.67;44.71;95379.84;6180299;28;104828;-63
2022/09/04 12:38:59;;;;;;;5.53;5.13;;;;;;;24.75;44.15;95379.09;6180482;28;103188;-64
2022/09/04 12:42:11;;;;;;;6.43;5.90;;;;;;;24.63;43.73;95384.25;6161310;28;103259;-65
2022/09/04 12:45:24;;;;;;;5.70;5.30;;;;;;;24.76;44.14;95375.31;6167198;28;104433;-64
2022/09/04 12:48:35;;;;;;;6.30;5.80;;;;;;;24.78;43.70;95375.81;6186143;28;103126;-65
2022/09/04 12:51:49;;;;;;;5.40;5.00;;;;;;;24.84;44.50;95377.22;6174653;28;104178;-65
2022/09/04 12:55:02;;;;;;;5.97;5.47;;;;;;;24.72;43.22;95374.38;6166319;28;103266;-65
2022/09/04 12:58:21;;;;;;;5.80;5.30;;;;;;;24.71;43.46;95378.97;6162156;28;103614;-64
2022/09/04 13:01:35;;;;;;;5.97;5.47;;;;;;;24.60;42.46;95363.47;6166628;28;104910;-66
2022/09/04 13:04:56;;;;;;;5.60;5.20;;;;;;;24.58;42.56;95366.47;6158452;28;103232;-65
2022/09/04 13:08:09;;;;;;;6.17;5.77;;;;;;;24.53;41.96;95365.81;6163989;28;104088;-65
2022/09/04 13:11:28;;;;;;;5.40;5.00;;;;;;;24.46;41.82;95368.97;6171891;28;103571;-65
2022/09/04 13:14:59;;;;;;;4.87;4.57;;;;;;;24.54;41.98;95372.78;6178540;28;103146;-65
2022/09/04 13:18:32;;;;;;;4.83;4.43;;;;;;;24.62;42.29;95366.63;6182594;28;103338;-67
2022/09/04 13:21:56;;;;;;;5.60;5.07;;;;;;;24.82;42.20;95365.25;6182931;28;105213;-66
2022/09/04 13:25:12;;;;;;;4.83;4.47;;;;;;;24.91;41.97;95371.41;6184986;28;103071;-68
2022/09/04 13:28:34;;;;;;;5.53;5.03;;;;;;;24.99;42.28;95375.94;6174339;28;103145;-67
2022/09/04 13:32:03;;;;;;;4.40;4.10;;;;;;;24.99;42.59;95376.72;6164829;28;103090;-66
2022/09/04 13:35:17;;;;;;;5.30;4.90;;;;;;;25.01;43.33;95382.56;6141804;28;103380;-66
2022/09/04 13:39:01;;;;;;;5.30;4.90;;;;;;;25.08;43.65;95382.09;6144479;28;103226;-66
2022/09/04 13:42:28;;;;;;;5.47;5.07;;;;;;;25.06;43.95;95377.06;6178000;28;103102;-66
2022/09/04 13:45:34;;;;;;;5.50;5.10;;;;;;;25.09;44.13;95375.63;6162995;28;103499;-66
2022/09/04 13:48:42;;;;;;;5.10;4.70;;;;;;;25.11;44.37;95386.81;6165171;28;106377;-65
2022/09/04 13:51:51;;;;;;;5.73;5.33;;;;;;;25.16;44.64;95388.53;6160549;28;103267;-66
2022/09/04 13:55:02;;;;;;;6.23;5.63;;;;;;;25.11;45.02;95386.03;6172205;28;102856;-67
2022/09/04 13:58:10;;;;;;;5.00;4.60;;;;;;;25.08;45.72;95385.56;6168289;28;104088;-74
2022/09/04 14:01:16;;;;;;;6.23;5.73;;;;;;;25.02;45.97;95392.16;6161544;28;104657;-72
2022/09/04 14:04:25;;;;;;;7.20;6.50;;;;;;;25.09;46.11;95394.38;6164335;28;103071;-72
2022/09/04 14:07:32;;;;;;;6.70;6.13;;;;;;;25.14;45.66;95390.75;6161077;28;103381;-72
2022/09/04 14:10:54;;;;;;;5.97;5.40;;;;;;;25.09;45.66;95386.34;6167085;28;103285;-71
2022/09/04 14:14:22;;;;;;;6.10;5.60;;;;;;;25.12;45.51;95388.38;6173614;28;103809;-72
2022/09/04 14:17:36;;;;;;;5.43;4.90;;;;;;;25.13;45.85;95391.84;6165521;28;103318;-70
2022/09/04 14:20:56;;;;;;;6.50;5.90;;;;;;;25.20;45.87;95392.16;6178205;28;104472;-71
2022/09/04 14:24:10;;;;;;;5.70;5.30;;;;;;;25.17;45.53;95398.16;6153619;28;103042;-73
2022/09/04 14:27:24;;;;;;;5.50;5.10;;;;;;;25.11;45.49;95394.84;6164202;28;103027;-74
2022/09/04 14:30:30;;;;;;;5.67;5.27;;;;;;;25.07;45.23;95392.03;6163517;28;104326;-73
2022/09/04 14:33:42;;;;;;;6.30;5.70;;;;;;;25.06;45.61;95387.78;6173682;28;103553;-74
2022/09/04 14:36:55;;;;;;;6.10;5.70;;;;;;;25.06;45.86;95390.44;6182941;28;104251;-73
2022/09/04 14:40:04;;;;;;;8.40;7.70;;;;;;;25.03;47.00;95392.94;6187249;28;102687;-73
2022/09/04 14:43:21;;;;;;;9.80;8.17;;;;;;;25.02;47.86;95400.19;6188066;28;103220;-74
2022/09/04 14:46:32;;;;;;;9.53;8.63;;;;;;;24.96;47.66;95404.16;6177306;28;103725;-72
2022/09/04 14:49:41;;;;;;;4.97;4.60;;;;;;;24.87;46.79;95403.38;6182794;28;103096;-74
2022/09/04 14:52:55;;;;;;;4.90;4.50;;;;;;;24.77;47.17;95404.47;6172217;28;103290;-73
2022/09/04 14:56:17;;;;;;;5.43;4.93;;;;;;;24.70;47.80;95400.69;6166620;28;103071;-74
2022/09/04 14:59:26;;;;;;;6.03;4.33;;;;;;;24.54;48.51;95396.84;6154024;28;103147;-73
2022/09/04 15:02:36;;;;;;;7.57;6.97;;;;;;;24.73;47.94;95395.50;6178025;28;103627;-71
2022/09/04 15:05:47;;;;;;;5.03;4.70;;;;;;;24.62;47.17;95388.81;6180294;28;103269;-71
2022/09/04 15:08:52;;;;;;;5.43;4.10;;;;;;;24.69;47.25;95399.88;6130802;28;103234;-71
2022/09/04 15:12:12;;;;;;;7.23;4.43;;;;;;;24.73;47.40;95402.72;6154739;28;103560;-72
2022/09/04 15:15:31;;;;;;;5.67;3.50;;;;;;;24.70;46.57;95398.00;6163809;28;103232;-74
2022/09/04 15:18:42;;;;;;;5.57;5.17;;;;;;;24.65;47.02;95408.81;6170068;28;103179;-73
2022/09/04 15:21:55;;;;;;;5.00;4.50;;;;;;;24.63;47.09;95411.81;6152441;28;103426;-73
2022/09/04 15:25:04;;;;;;;5.13;4.63;;;;;;;24.60;47.68;95414.31;6162060;28;104632;-74
2022/09/04 15:28:15;;;;;;;3.67;3.47;;;;;;;24.55;47.89;95425.97;6167428;28;103055;-71
2022/09/04 15:31:28;;;;;;;4.03;3.70;;;;;;;24.64;47.67;95426.75;6151719;28;103001;-71